Time;durP1;ratioP1;P1;durP2;ratioP2;P2;SDS_P1;SDS_P2;PMS_P1;PMS_P2;Temp;Humidity;BMP_temperature;BMP_pressure;BME280_temperature;BME280_humidity;BME280_pressure;Samples;Min_cycle;Max_cycle;Signal;HPM_P1;HPM_P2
2022/01/29 00:01:10;;;;;;;28.88;10.32;;;;;;;6.13;100.00;99464.25;5042184;28;20289;-54
2022/01/29 00:03:36;;;;;;;27.67;10.57;;;;;;;6.27;100.00;99456.47;5042972;28;20025;-55
2022/01/29 00:06:03;;;;;;;24.20;11.63;;;;;;;6.12;100.00;99457.31;5042557;28;20679;-56
2022/01/29 00:08:28;;;;;;;23.13;7.75;;;;;;;6.62;100.00;99459.03;5042009;28;20028;-55
2022/01/29 00:11:00;;;;;;;23.60;9.45;;;;;;;6.15;100.00;99457.31;5041808;28;20032;-56
2022/01/29 00:13:25;;;;;;;32.75;12.43;;;;;;;5.91;100.00;99450.38;5042756;28;20025;-56
2022/01/29 00:15:50;;;;;;;23.25;10.77;;;;;;;6.62;100.00;99443.47;5042108;28;20134;-56
2022/01/29 00:18:16;;;;;;;21.10;9.95;;;;;;;5.91;100.00;99442.59;5042367;28;20083;-55
2022/01/29 00:20:41;;;;;;;25.13;11.07;;;;;;;5.95;100.00;99437.44;5041825;28;20037;-58
2022/01/29 00:23:07;;;;;;;21.10;9.05;;;;;;;6.60;100.00;99440.03;5042212;28;20044;-56
2022/01/29 00:25:32;;;;;;;13.40;6.07;;;;;;;6.03;100.00;99431.41;5040917;28;20036;-55
2022/01/29 00:27:59;;;;;;;22.38;9.68;;;;;;;6.21;100.00;99436.59;5042520;28;20039;-56
2022/01/29 00:30:31;;;;;;;24.02;10.23;;;;;;;5.97;100.00;99419.31;5041618;28;20116;-57
2022/01/29 00:32:56;;;;;;;22.85;9.77;;;;;;;6.41;100.00;99422.75;5042680;28;20074;-56
2022/01/29 00:35:21;;;;;;;27.15;11.90;;;;;;;5.44;100.00;99415.78;5041626;28;20049;-56
2022/01/29 00:37:47;;;;;;;25.23;12.85;;;;;;;5.51;100.00;99414.91;5041748;28;20029;-55
2022/01/29 00:40:13;;;;;;;23.77;10.25;;;;;;;6.01;100.00;99412.41;5041720;28;20021;-55
2022/01/29 00:42:39;;;;;;;26.67;12.13;;;;;;;5.53;100.00;99410.63;5042338;28;20017;-55
2022/01/29 00:45:06;;;;;;;30.90;12.02;;;;;;;6.08;100.00;99408.97;5041652;28;20036;-56
2022/01/29 00:47:31;;;;;;;22.40;10.80;;;;;;;6.07;100.00;99409.84;5042210;28;20130;-56
2022/01/29 00:49:57;;;;;;;14.00;5.00;;;;;;;6.55;100.00;99410.66;5041596;28;20431;-56
2022/01/29 00:52:22;;;;;;;27.65;13.00;;;;;;;6.13;100.00;99415.00;5040810;28;20063;-56
2022/01/29 00:54:47;;;;;;;19.58;9.50;;;;;;;6.04;100.00;99413.28;5042214;28;20025;-57
2022/01/29 00:57:13;;;;;;;28.85;12.57;;;;;;;5.88;100.00;99409.81;5040841;28;20095;-56
2022/01/29 00:59:38;;;;;;;22.58;9.43;;;;;;;6.43;100.00;99405.47;5041726;28;20020;-54
2022/01/29 01:02:04;;;;;;;26.98;11.02;;;;;;;6.20;100.00;99401.19;5037751;28;20033;-55
2022/01/29 01:04:30;;;;;;;24.70;11.65;;;;;;;5.51;100.00;99401.13;5039864;28;20576;-56
2022/01/29 01:06:55;;;;;;;27.27;11.82;;;;;;;5.68;100.00;99389.06;5041096;28;20029;-55
2022/01/29 01:09:20;;;;;;;27.48;11.85;;;;;;;6.56;100.00;99389.00;5041807;28;20083;-54
2022/01/29 01:11:46;;;;;;;23.45;10.40;;;;;;;5.95;100.00;99383.06;5039573;28;20407;-55
2022/01/29 01:14:11;;;;;;;22.90;11.02;;;;;;;6.08;100.00;99375.28;5042045;28;20033;-55
2022/01/29 01:16:36;;;;;;;21.55;11.13;;;;;;;6.13;100.00;99378.75;5041608;28;20117;-55
2022/01/29 01:19:02;;;;;;;22.00;10.07;;;;;;;6.15;100.00;99384.78;5041774;28;20637;-54
2022/01/29 01:21:28;;;;;;;26.38;11.63;;;;;;;5.96;100.00;99386.53;5041395;28;20120;-55
2022/01/29 01:23:53;;;;;;;23.40;12.05;;;;;;;5.60;100.00;99390.78;5041562;28;20021;-55
2022/01/29 01:26:19;;;;;;;26.67;11.35;;;;;;;5.68;100.00;99385.59;5041561;28;20036;-56
2022/01/29 01:28:44;;;;;;;20.80;8.35;;;;;;;6.33;100.00;99397.72;5042010;28;20029;-56
2022/01/29 01:31:10;;;;;;;21.17;9.02;;;;;;;6.21;100.00;99395.13;5041209;28;20491;-55
2022/01/29 01:33:35;;;;;;;22.85;10.38;;;;;;;6.09;100.00;99397.75;5041577;28;20116;-56
2022/01/29 01:36:04;;;;;;;22.60;10.65;;;;;;;5.78;100.00;99389.94;5041172;28;20635;-55
2022/01/29 01:41:00;;;;;;;28.85;12.52;;;;;;;5.80;100.00;99380.44;5041265;28;20136;-54
2022/01/29 01:43:26;;;;;;;15.55;6.80;;;;;;;6.42;100.00;99368.34;5041848;28;20033;-56
2022/01/29 01:45:51;;;;;;;24.73;11.68;;;;;;;5.86;100.00;99375.25;5041571;28;20125;-54
2022/01/29 01:48:16;;;;;;;21.90;9.55;;;;;;;5.89;100.00;99364.91;5040420;28;20704;-54
2022/01/29 01:50:42;;;;;;;26.40;12.05;;;;;;;5.40;100.00;99367.44;5041045;28;20045;-56
2022/01/29 01:53:08;;;;;;;24.80;10.43;;;;;;;6.16;100.00;99373.56;5041300;28;20024;-55
2022/01/29 01:55:34;;;;;;;25.10;10.40;;;;;;;5.92;100.00;99370.09;5040684;28;20040;-54
2022/01/29 01:57:59;;;;;;;30.05;12.18;;;;;;;5.74;100.00;99360.59;5041224;28;20039;-54
2022/01/29 02:00:25;;;;;;;24.23;10.48;;;;;;;5.80;100.00;99362.31;5041232;28;20029;-54
2022/01/29 02:02:51;;;;;;;21.40;10.40;;;;;;;6.29;100.00;99356.28;5040339;28;20116;-54
2022/01/29 02:05:17;;;;;;;22.55;10.13;;;;;;;5.82;100.00;99355.41;5041019;28;20117;-55
2022/01/29 02:07:43;;;;;;;22.00;9.02;;;;;;;6.77;100.00;99351.81;5041286;28;20017;-54
2022/01/29 02:10:11;;;;;;;21.88;10.70;;;;;;;6.51;100.00;99351.91;5040431;28;20024;-54
2022/01/29 02:12:56;;;;;;;24.77;11.15;;;;;;;5.55;100.00;99351.06;5039701;28;20032;-56
2022/01/29 02:15:23;;;;;;;23.58;10.93;;;;;;;5.82;100.00;99352.81;5040137;28;20735;-55
2022/01/29 02:17:49;;;;;;;26.83;11.98;;;;;;;5.73;100.00;99348.50;5040361;28;20036;-54
2022/01/29 02:20:20;;;;;;;24.60;10.45;;;;;;;5.68;100.00;99342.47;5040472;28;20036;-56
2022/01/29 02:22:46;;;;;;;22.80;10.32;;;;;;;5.81;100.00;99343.34;5055958;28;20188;-55
2022/01/29 02:25:38;;;;;;;13.45;5.07;;;;;;;6.60;100.00;99341.50;5040612;28;20935;-55
2022/01/29 02:28:09;;;;;;;17.02;6.55;;;;;;;6.36;100.00;99327.75;5040666;28;20499;-54
2022/01/29 02:30:38;;;;;;;22.67;9.70;;;;;;;6.38;100.00;99314.78;5040554;28;20550;-55
2022/01/29 02:33:06;;;;;;;27.38;11.38;;;;;;;5.76;100.00;99303.63;5040801;28;20051;-54
2022/01/29 02:35:33;;;;;;;24.42;9.95;;;;;;;6.27;100.00;99306.19;5040437;28;20453;-55
2022/01/29 02:37:59;;;;;;;22.40;9.73;;;;;;;6.63;100.00;99312.94;5040479;28;20048;-56
2022/01/29 02:40:25;;;;;;;22.88;9.70;;;;;;;6.37;100.00;99292.31;5040359;28;20442;-55
2022/01/29 02:42:53;;;;;;;23.65;10.43;;;;;;;6.56;100.00;99281.03;5041029;28;20098;-55
2022/01/29 02:45:18;;;;;;;12.50;5.47;;;;;;;7.36;100.00;99282.28;5040312;28;20036;-56
2022/01/29 02:47:44;;;;;;;18.92;8.68;;;;;;;6.85;100.00;99285.19;5040908;28;20021;-55
2022/01/29 02:50:09;;;;;;;20.20;8.90;;;;;;;5.84;100.00;99276.00;5040395;28;20037;-54
2022/01/29 02:52:35;;;;;;;24.17;10.38;;;;;;;6.12;100.00;99273.38;5040838;28;20116;-54
2022/01/29 02:55:02;;;;;;;18.20;7.00;;;;;;;6.50;100.00;99268.06;5040597;28;20588;-56
2022/01/29 02:57:28;;;;;;;19.65;8.93;;;;;;;6.22;100.00;99262.13;5040329;28;20737;-55
2022/01/29 02:59:57;;;;;;;25.83;10.13;;;;;;;6.07;100.00;99251.81;5039833;28;20028;-57
2022/01/29 03:02:22;;;;;;;21.33;9.23;;;;;;;5.73;100.00;99251.84;5043608;28;20044;-54
2022/01/29 03:04:48;;;;;;;14.77;6.00;;;;;;;7.04;100.00;99254.81;5044338;28;20051;-53
2022/01/29 03:07:13;;;;;;;21.33;10.00;;;;;;;6.28;100.00;99263.84;5044168;28;20041;-55
2022/01/29 03:09:39;;;;;;;24.33;9.80;;;;;;;5.78;100.00;99253.56;5044439;28;20067;-55
2022/01/29 03:12:04;;;;;;;22.20;8.90;;;;;;;6.03;100.00;99250.09;5043465;28;20092;-54
2022/01/29 03:14:30;;;;;;;16.15;6.68;;;;;;;5.96;100.00;99255.28;5044042;28;20028;-53
2022/01/29 03:16:56;;;;;;;21.20;9.00;;;;;;;5.96;100.00;99238.91;5044267;28;20128;-55
2022/01/29 03:19:22;;;;;;;20.67;9.25;;;;;;;6.15;100.00;99230.19;5042567;28;20025;-55
2022/01/29 03:21:47;;;;;;;23.23;9.82;;;;;;;5.86;100.00;99222.47;5043421;28;20052;-54
2022/01/29 03:24:12;;;;;;;25.25;10.18;;;;;;;5.56;100.00;99224.25;5043647;28;20025;-54
2022/01/29 03:26:38;;;;;;;24.30;9.88;;;;;;;5.74;100.00;99230.28;5043726;28;20040;-55
2022/01/29 03:29:03;;;;;;;20.73;8.98;;;;;;;5.76;100.00;99224.22;5044292;28;20063;-56
2022/01/29 03:31:29;;;;;;;20.02;9.02;;;;;;;6.06;100.00;99216.41;5043466;28;20501;-53
2022/01/29 03:33:54;;;;;;;21.13;8.60;;;;;;;5.54;100.00;99215.63;5043877;28;20024;-54
2022/01/29 03:36:19;;;;;;;22.60;8.65;;;;;;;6.19;100.00;99220.69;5043076;28;20033;-54
2022/01/29 03:38:45;;;;;;;22.17;9.40;;;;;;;5.44;100.00;99208.75;5043581;28;20064;-56
2022/01/29 03:41:13;;;;;;;18.75;7.97;;;;;;;5.99;100.00;99200.03;5042765;28;20125;-54
2022/01/29 03:43:46;;;;;;;19.75;8.13;;;;;;;5.67;100.00;99200.09;5042857;28;20090;-54
2022/01/29 03:46:12;;;;;;;21.40;9.07;;;;;;;5.66;100.00;99203.53;5042495;28;20032;-54
2022/01/29 03:48:38;;;;;;;22.58;9.20;;;;;;;5.34;100.00;99196.69;5042391;28;20048;-55
2022/01/29 03:51:03;;;;;;;16.67;5.65;;;;;;;6.58;100.00;99198.06;5042665;28;20090;-55
2022/01/29 03:53:28;;;;;;;15.73;7.00;;;;;;;6.20;100.00;99196.50;5043517;28;20559;-54
2022/01/29 03:55:54;;;;;;;17.52;7.47;;;;;;;5.96;100.00;99193.13;5043054;28;20059;-55
2022/01/29 03:58:19;;;;;;;20.40;9.07;;;;;;;5.93;100.00;99193.09;5042216;28;20025;-56
2022/01/29 04:00:44;;;;;;;16.83;8.15;;;;;;;6.12;100.00;99199.13;5042584;28;20127;-57
2022/01/29 04:03:10;;;;;;;24.58;8.65;;;;;;;5.79;100.00;99200.06;5043475;28;20033;-54
2022/01/29 04:05:36;;;;;;;23.55;9.30;;;;;;;5.45;100.00;99194.09;5042718;28;20500;-54
2022/01/29 04:08:02;;;;;;;15.38;7.25;;;;;;;5.71;100.00;99188.84;5042922;28;20110;-56
2022/01/29 04:10:29;;;;;;;13.50;5.80;;;;;;;6.26;100.00;99196.47;5042455;28;20195;-56
2022/01/29 04:12:55;;;;;;;13.32;5.60;;;;;;;6.20;100.00;99201.69;5041072;28;20035;-54
2022/01/29 04:15:20;;;;;;;23.70;9.38;;;;;;;5.98;100.00;99200.91;5042145;28;20048;-56
2022/01/29 04:17:46;;;;;;;17.20;8.10;;;;;;;6.46;100.00;99188.59;5043388;28;20040;-54
2022/01/29 04:20:11;;;;;;;20.33;8.93;;;;;;;5.81;100.00;99187.97;5042456;28;20032;-55
2022/01/29 04:22:37;;;;;;;20.00;8.05;;;;;;;5.94;100.00;99187.06;5042871;28;20639;-53
2022/01/29 04:25:02;;;;;;;16.63;7.15;;;;;;;6.67;100.00;99185.03;5042479;28;20020;-56
2022/01/29 04:27:41;;;;;;;17.98;7.93;;;;;;;7.07;100.00;99170.91;5043277;28;20505;-55
2022/01/29 04:30:13;;;;;;;21.83;7.93;;;;;;;6.46;100.00;99161.81;5043034;28;20033;-54
2022/01/29 04:35:04;;;;;;;18.23;7.65;;;;;;;6.32;100.00;99151.53;5042409;28;20025;-54
2022/01/29 04:37:29;;;;;;;18.90;8.00;;;;;;;6.52;100.00;99159.19;5041350;28;20028;-56
2022/01/29 04:39:54;;;;;;;22.50;9.27;;;;;;;5.80;100.00;99153.44;5042901;28;20029;-54
2022/01/29 04:42:20;;;;;;;21.50;8.80;;;;;;;5.64;100.00;99158.66;5041869;28;20398;-54
2022/01/29 04:44:45;;;;;;;21.00;8.57;;;;;;;5.55;100.00;99155.25;5042734;28;20025;-56
2022/01/29 04:47:10;;;;;;;17.98;7.55;;;;;;;5.91;100.00;99140.44;5042254;28;20096;-56
2022/01/29 04:49:36;;;;;;;19.02;8.45;;;;;;;5.38;100.00;99147.50;5042491;28;20060;-54
2022/01/29 04:52:01;;;;;;;21.35;9.05;;;;;;;5.41;100.00;99138.88;5041690;28;20075;-55
2022/01/29 04:54:27;;;;;;;11.75;5.15;;;;;;;7.34;100.00;99136.94;5042566;28;20041;-54
2022/01/29 04:56:52;;;;;;;16.55;7.75;;;;;;;6.96;100.00;99139.84;5041306;28;20041;-56
2022/01/29 04:59:17;;;;;;;19.23;8.52;;;;;;;5.90;100.00;99130.97;5042495;28;20028;-57
2022/01/29 05:01:43;;;;;;;19.15;8.32;;;;;;;5.62;100.00;99129.34;5041490;28;20039;-55
2022/01/29 05:04:08;;;;;;;17.52;7.82;;;;;;;6.47;100.00;99133.31;5041757;28;20024;-55
2022/01/29 05:06:33;;;;;;;16.88;6.93;;;;;;;6.25;100.00;99126.50;5041505;28;20036;-55
2022/01/29 05:08:59;;;;;;;19.50;8.05;;;;;;;5.72;100.00;99131.91;5042752;28;20394;-55
2022/01/29 05:11:24;;;;;;;18.17;9.07;;;;;;;5.24;100.00;99136.34;5040708;28;20040;-57
2022/01/29 05:13:49;;;;;;;19.40;8.73;;;;;;;5.72;100.00;99137.06;5042400;28;20033;-56
2022/01/29 05:27:02;;;;;;;21.40;9.75;;;;;;;5.51;100.00;99130.22;5041298;28;20442;-57
2022/01/29 05:29:30;;;;;;;21.42;8.52;;;;;;;5.97;100.00;99122.34;5041988;28;20056;-55
2022/01/29 05:31:57;;;;;;;17.75;8.50;;;;;;;6.27;100.00;99123.06;5041075;28;20041;-55
2022/01/29 05:34:22;;;;;;;20.45;9.70;;;;;;;5.96;100.00;99112.84;5041925;28;20072;-55
2022/01/29 05:36:49;;;;;;;18.13;9.63;;;;;;;6.25;100.00;99104.06;5041177;28;20135;-55
2022/01/29 05:39:15;;;;;;;21.40;9.35;;;;;;;6.21;100.00;99104.09;5040830;28;20031;-56
2022/01/29 05:41:40;;;;;;;22.23;9.98;;;;;;;5.93;100.00;99088.66;5040668;28;20036;-56
2022/01/29 05:44:06;;;;;;;20.23;8.73;;;;;;;6.59;100.00;99077.91;5041165;28;20031;-56
2022/01/29 05:46:31;;;;;;;22.17;9.80;;;;;;;5.45;100.00;99091.44;5040842;28;20029;-55
2022/01/29 05:48:57;;;;;;;20.17;9.80;;;;;;;6.23;100.00;99085.09;5041531;28;20029;-55
2022/01/29 05:51:22;;;;;;;19.58;8.95;;;;;;;6.54;100.00;99088.34;5040609;28;20049;-55
2022/01/29 05:53:48;;;;;;;19.15;9.32;;;;;;;6.67;100.00;99070.94;5041546;28;20639;-55
2022/01/29 05:56:13;;;;;;;20.83;10.02;;;;;;;6.26;100.00;99071.25;5040189;28;20114;-57
2022/01/29 05:58:38;;;;;;;20.17;9.85;;;;;;;5.92;100.00;99064.50;5041505;28;20024;-55
2022/01/29 06:01:04;;;;;;;16.90;7.10;;;;;;;7.78;100.00;99067.22;5039946;28;20045;-55
2022/01/29 06:03:30;;;;;;;20.08;9.63;;;;;;;6.78;100.00;99059.63;5037762;28;20021;-54
2022/01/29 06:05:55;;;;;;;11.55;4.28;;;;;;;7.61;100.00;99063.94;5037260;28;20028;-57
2022/01/29 06:08:21;;;;;;;20.67;10.77;;;;;;;6.26;100.00;99056.56;5040840;28;20063;-55
2022/01/29 06:10:47;;;;;;;21.75;10.75;;;;;;;5.94;100.00;99049.81;5040244;28;20068;-54
2022/01/29 06:13:14;;;;;;;18.98;9.02;;;;;;;6.52;100.00;99052.91;5040354;28;20021;-55
2022/01/29 06:15:50;;;;;;;23.30;11.27;;;;;;;5.77;100.00;99056.78;5040496;28;20045;-57
2022/01/29 06:18:24;;;;;;;23.90;10.77;;;;;;;5.88;100.00;99065.38;5040822;28;20429;-54
2022/01/29 06:20:58;;;;;;;20.05;8.38;;;;;;;7.02;100.00;99066.31;5040432;28;20069;-55
2022/01/29 06:23:30;;;;;;;23.30;10.35;;;;;;;5.80;100.00;99072.31;5041019;28;20033;-55
2022/01/29 06:26:00;;;;;;;21.88;10.63;;;;;;;6.46;100.00;99058.16;5040021;28;20170;-55
2022/01/29 06:28:25;;;;;;;21.75;9.93;;;;;;;6.65;100.00;99054.53;5041159;28;20025;-56
2022/01/29 06:30:51;;;;;;;22.50;11.00;;;;;;;5.84;100.00;99057.63;5040235;28;20048;-55
2022/01/29 06:33:16;;;;;;;21.70;10.20;;;;;;;5.49;100.00;99056.06;5040601;28;20036;-56
2022/01/29 06:35:44;;;;;;;21.95;10.25;;;;;;;5.51;100.00;99056.91;5042809;28;20037;-55
2022/01/29 06:38:12;;;;;;;16.35;7.55;;;;;;;6.05;100.00;99060.16;5044994;28;20064;-55
2022/01/29 06:40:38;;;;;;;20.27;8.65;;;;;;;5.75;100.00;99059.41;5043927;28;20900;-56
2022/01/29 06:43:04;;;;;;;21.48;10.45;;;;;;;5.67;100.00;99053.38;5044794;28;20025;-54
2022/01/29 06:45:32;;;;;;;20.92;8.85;;;;;;;5.96;100.00;99055.88;5042731;28;20044;-55
2022/01/29 06:47:57;;;;;;;16.52;8.02;;;;;;;7.72;100.00;99067.28;5045060;28;20036;-56
2022/01/29 06:50:23;;;;;;;22.63;10.80;;;;;;;5.96;100.00;99063.63;5044211;28;20109;-54
2022/01/29 06:52:49;;;;;;;20.77;10.25;;;;;;;5.68;100.00;99062.00;5044465;28;20029;-53
2022/01/29 06:55:15;;;;;;;16.83;8.02;;;;;;;6.69;100.00;99066.63;5044257;28;20032;-54
2022/01/29 06:57:40;;;;;;;21.27;9.05;;;;;;;6.00;100.00;99068.81;5044721;28;20379;-57
2022/01/29 07:00:09;;;;;;;20.92;9.25;;;;;;;6.37;100.00;99059.91;5044596;28;20033;-55
2022/01/29 07:02:35;;;;;;;21.25;9.60;;;;;;;6.00;100.00;99055.88;5043875;28;20044;-56
2022/01/29 07:05:01;;;;;;;23.02;10.23;;;;;;;6.62;100.00;99054.56;5044280;28;20029;-57
2022/01/29 07:07:27;;;;;;;24.38;11.27;;;;;;;6.10;100.00;99049.75;5043750;28;20029;-56
2022/01/29 07:09:53;;;;;;;20.63;10.18;;;;;;;5.79;100.00;99044.72;5044640;28;20059;-54
2022/01/29 07:12:18;;;;;;;26.02;12.07;;;;;;;6.16;100.00;99044.53;5043704;28;20037;-58
2022/01/29 07:14:44;;;;;;;24.23;11.10;;;;;;;5.89;100.00;99037.75;5044631;28;20040;-55
2022/01/29 07:17:15;;;;;;;21.17;10.88;;;;;;;5.75;100.00;99050.75;5043815;28;20094;-55
2022/01/29 07:19:40;;;;;;;23.90;10.82;;;;;;;5.71;100.00;99051.66;5043843;28;20040;-55
2022/01/29 07:22:06;;;;;;;24.33;11.30;;;;;;;5.54;100.00;99055.16;5043259;28;20045;-55
2022/01/29 07:24:35;;;;;;;23.88;11.10;;;;;;;5.84;100.00;99058.47;5044524;28;20037;-57
2022/01/29 07:27:00;;;;;;;23.92;10.98;;;;;;;6.95;100.00;99057.75;5043874;28;20082;-57
2022/01/29 07:29:26;;;;;;;23.08;10.93;;;;;;;6.12;100.00;99058.34;5044248;28;20033;-55
2022/01/29 07:31:51;;;;;;;17.48;8.15;;;;;;;7.02;100.00;99058.53;5042945;28;20040;-54
2022/01/29 07:34:17;;;;;;;24.25;11.50;;;;;;;5.82;100.00;99062.81;5044217;28;20131;-54
2022/01/29 07:36:43;;;;;;;23.67;10.98;;;;;;;6.02;100.00;99059.31;5043401;28;20124;-57
2022/01/29 07:39:09;;;;;;;25.95;11.70;;;;;;;5.93;100.00;99047.22;5044314;28;20032;-55
2022/01/29 07:41:34;;;;;;;22.35;10.70;;;;;;;6.58;100.00;99042.50;5042667;28;20045;-58
2022/01/29 07:44:00;;;;;;;30.42;13.20;;;;;;;6.11;100.00;99025.56;5042562;28;20086;-54
2022/01/29 07:46:25;;;;;;;22.98;8.98;;;;;;;7.56;100.00;99037.19;5042103;28;20037;-54
2022/01/29 07:48:51;;;;;;;23.52;11.38;;;;;;;6.20;100.00;99028.09;5043959;28;20244;-56
2022/01/29 07:51:16;;;;;;;19.75;9.38;;;;;;;6.94;100.00;99030.06;5043089;28;20128;-56
2022/01/29 07:53:41;;;;;;;27.10;11.80;;;;;;;6.73;100.00;99032.00;5043132;28;20033;-55
2022/01/29 07:56:07;;;;;;;21.25;10.88;;;;;;;7.85;100.00;99026.44;5043107;28;20403;-57
2022/01/29 07:58:32;;;;;;;21.40;10.30;;;;;;;6.21;100.00;99016.84;5043932;28;20499;-55
2022/01/29 08:00:57;;;;;;;23.33;10.45;;;;;;;6.94;100.00;99022.28;5043085;28;20037;-57
2022/01/29 08:03:23;;;;;;;23.70;9.63;;;;;;;7.49;100.00;99013.88;5043113;28;20065;-56
2022/01/29 08:05:48;;;;;;;12.18;5.80;;;;;;;8.83;100.00;99016.28;5042861;28;20033;-56
2022/01/29 08:08:13;;;;;;;19.73;10.32;;;;;;;7.39;100.00;99012.31;5043672;28;20117;-55
2022/01/29 08:10:39;;;;;;;22.92;10.85;;;;;;;8.15;100.00;99012.13;5042622;28;20112;-58
2022/01/29 08:13:04;;;;;;;17.80;7.55;;;;;;;9.66;100.00;99004.25;5043202;28;20057;-56
2022/01/29 08:15:29;;;;;;;22.38;11.55;;;;;;;7.74;100.00;99003.19;5042831;28;20048;-56
2022/01/29 08:17:55;;;;;;;8.23;3.53;;;;;;;10.60;100.00;99007.31;5043096;28;20155;-55
2022/01/29 08:20:20;;;;;;;20.77;11.52;;;;;;;7.34;100.00;99001.09;5042814;28;20655;-55
2022/01/29 08:22:47;;;;;;;12.43;5.78;;;;;;;8.93;100.00;98989.19;5042841;28;20021;-57
2022/01/29 08:25:12;;;;;;;19.83;10.40;;;;;;;6.67;100.00;98985.41;5041577;28;20483;-56
2022/01/29 08:27:38;;;;;;;20.52;10.02;;;;;;;7.06;100.00;98972.03;5040292;28;20036;-56
2022/01/29 08:30:04;;;;;;;22.13;11.70;;;;;;;6.12;100.00;98975.47;5041692;28;20033;-56
2022/01/29 08:32:30;;;;;;;20.85;10.02;;;;;;;6.76;100.00;98966.28;5042062;28;20178;-54
2022/01/29 08:34:55;;;;;;;12.60;6.35;;;;;;;7.16;100.00;98972.78;5042985;28;20033;-55
2022/01/29 08:37:20;;;;;;;25.55;11.85;;;;;;;6.82;100.00;98968.81;5042160;28;20047;-57
2022/01/29 08:39:45;;;;;;;17.85;8.88;;;;;;;7.60;100.00;98968.75;5042840;28;20021;-55
2022/01/29 08:42:11;;;;;;;25.52;10.93;;;;;;;7.01;100.00;98969.47;5041860;28;20029;-56
2022/01/29 08:44:37;;;;;;;18.00;9.18;;;;;;;6.71;100.00;98968.06;5042857;28;20090;-56
2022/01/29 08:47:03;;;;;;;19.52;9.65;;;;;;;7.14;100.00;98971.03;5041931;28;20530;-55
2022/01/29 08:49:28;;;;;;;17.10;8.55;;;;;;;7.36;100.00;98970.78;5043093;28;20124;-56
2022/01/29 08:51:54;;;;;;;18.77;8.68;;;;;;;7.01;100.00;98969.47;5041230;28;20143;-56
2022/01/29 08:54:19;;;;;;;22.52;10.82;;;;;;;7.40;100.00;98974.22;5042329;28;20441;-56
2022/01/29 08:56:44;;;;;;;16.52;7.88;;;;;;;7.55;100.00;98980.94;5041769;28;20041;-55
2022/01/29 08:59:10;;;;;;;18.23;9.52;;;;;;;6.36;100.00;98975.28;5041055;28;20400;-58
2022/01/29 09:01:35;;;;;;;16.48;8.73;;;;;;;7.26;100.00;98985.63;5041211;28;20129;-56
2022/01/29 09:04:01;;;;;;;19.33;7.55;;;;;;;7.62;100.00;99003.34;5042838;28;20087;-56
2022/01/29 09:06:26;;;;;;;19.73;7.78;;;;;;;8.82;100.00;98997.22;5036095;28;20747;-55
2022/01/29 09:08:52;;;;;;;20.95;9.82;;;;;;;6.52;100.00;98980.31;5040798;28;20025;-55
2022/01/29 09:11:18;;;;;;;19.33;8.65;;;;;;;7.27;100.00;98987.31;5041344;28;20036;-57
2022/01/29 09:13:44;;;;;;;14.90;7.28;;;;;;;7.04;100.00;98987.59;5042258;28;20517;-54
2022/01/29 09:16:10;;;;;;;16.20;7.55;;;;;;;8.25;100.00;98985.13;5041224;28;20124;-55
2022/01/29 09:18:36;;;;;;;17.42;8.65;;;;;;;6.20;100.00;98971.09;5042236;28;20086;-57
2022/01/29 09:21:02;;;;;;;18.83;8.23;;;;;;;6.59;100.00;98971.63;5041339;28;20403;-55
2022/01/29 09:23:27;;;;;;;15.55;6.57;;;;;;;7.48;100.00;98982.75;5041840;28;20020;-56
2022/01/29 09:25:53;;;;;;;15.95;7.18;;;;;;;8.10;100.00;98982.75;5041542;28;20749;-57
2022/01/29 09:28:18;;;;;;;13.80;6.38;;;;;;;7.28;100.00;98978.69;5038907;28;20380;-55
2022/01/29 09:30:45;;;;;;;16.25;7.07;;;;;;;7.66;100.00;98979.06;5038341;28;20090;-54
2022/01/29 09:33:11;;;;;;;17.75;7.90;;;;;;;6.72;100.00;98975.81;5039828;28;20029;-55
2022/01/29 09:35:38;;;;;;;18.88;8.40;;;;;;;6.21;100.00;98970.22;5040909;28;20041;-57
2022/01/29 09:38:05;;;;;;;19.33;8.10;;;;;;;7.94;100.00;98968.28;5041720;28;20028;-57
2022/01/29 09:40:31;;;;;;;15.90;7.90;;;;;;;7.07;100.00;98969.38;5041846;28;20067;-56
2022/01/29 09:42:58;;;;;;;13.18;5.93;;;;;;;7.52;100.00;98972.31;5041310;28;20494;-54
2022/01/29 09:45:24;;;;;;;18.40;8.13;;;;;;;6.35;100.00;98965.78;5041029;28;20033;-56
2022/01/29 09:47:50;;;;;;;18.13;7.55;;;;;;;6.93;100.00;98973.91;5041112;28;20017;-55
2022/01/29 09:50:19;;;;;;;19.05;8.07;;;;;;;7.14;100.00;98959.81;5040784;28;20028;-54
2022/01/29 09:52:45;;;;;;;17.40;7.82;;;;;;;6.52;100.00;98949.22;5039859;28;20696;-55
2022/01/29 09:55:10;;;;;;;16.17;6.60;;;;;;;8.32;100.00;98964.22;5041266;28;20035;-55
2022/01/29 09:57:36;;;;;;;15.70;6.03;;;;;;;8.19;100.00;98969.63;5035983;28;20029;-55
2022/01/29 10:00:06;;;;;;;17.60;6.60;;;;;;;7.74;100.00;98956.47;5039235;28;20029;-55
2022/01/29 10:02:32;;;;;;;22.92;8.30;;;;;;;6.48;100.00;98963.94;5028695;28;20045;-56
2022/01/29 10:04:57;;;;;;;14.15;6.63;;;;;;;7.22;100.00;98957.97;5038449;28;20024;-54
2022/01/29 10:07:26;;;;;;;14.52;6.25;;;;;;;8.32;100.00;98956.44;5037603;28;20162;-56
2022/01/29 10:09:53;;;;;;;16.73;7.45;;;;;;;7.78;100.00;98957.28;5038254;28;20242;-55
2022/01/29 10:12:19;;;;;;;18.38;8.70;;;;;;;7.00;100.00;98946.13;5039721;28;20089;-54
2022/01/29 10:14:49;;;;;;;17.67;8.40;;;;;;;5.78;100.00;98945.47;5041057;28;20028;-55
2022/01/29 10:17:37;;;;;;;22.15;8.70;;;;;;;5.81;100.00;98944.59;5038965;28;20474;-55
2022/01/29 10:20:07;;;;;;;20.23;8.63;;;;;;;6.01;100.00;98935.84;5040845;28;20103;-56
2022/01/29 10:22:35;;;;;;;23.05;8.38;;;;;;;5.92;100.00;98945.38;5036613;28;20069;-55
2022/01/29 10:25:11;;;;;;;19.77;7.97;;;;;;;5.60;100.00;98941.25;5039455;28;20040;-56
2022/01/29 10:27:36;;;;;;;25.13;8.95;;;;;;;5.38;100.00;98950.00;5039101;28;20033;-55
2022/01/29 10:30:03;;;;;;;18.85;8.25;;;;;;;5.65;100.00;98946.41;5039166;28;20029;-54
2022/01/29 10:32:29;;;;;;;20.48;7.72;;;;;;;5.74;100.00;98938.59;5039950;28;20094;-55
2022/01/29 10:34:56;;;;;;;20.52;7.65;;;;;;;6.09;100.00;98934.06;5040550;28;20109;-57
2022/01/29 10:37:23;;;;;;;18.45;7.68;;;;;;;5.64;100.00;98920.53;5038329;28;20033;-54
2022/01/29 10:39:52;;;;;;;22.38;8.98;;;;;;;5.54;100.00;98920.59;5040575;28;20032;-55
2022/01/29 10:42:18;;;;;;;19.92;7.63;;;;;;;5.58;100.00;98917.09;5040036;28;20048;-54
2022/01/29 10:44:48;;;;;;;18.52;7.78;;;;;;;6.22;100.00;98908.91;5040318;28;20033;-55
2022/01/29 10:47:15;;;;;;;18.00;7.55;;;;;;;6.21;100.00;98908.03;5040282;28;20041;-55
2022/01/29 10:49:50;;;;;;;19.83;6.18;;;;;;;10.18;100.00;98924.88;5039972;28;20402;-56
2022/01/29 10:52:17;;;;;;;15.45;6.28;;;;;;;12.41;100.00;98922.81;5037224;28;20784;-57
2022/01/29 10:54:47;;;;;;;15.75;6.80;;;;;;;10.32;100.00;98908.06;5037671;28;20065;-55
2022/01/29 10:57:16;;;;;;;16.88;7.47;;;;;;;6.87;100.00;98909.09;5038242;28;20033;-56
2022/01/29 10:59:53;;;;;;;18.15;7.70;;;;;;;6.82;100.00;98913.47;5036538;28;20087;-55
2022/01/29 11:02:20;;;;;;;16.08;7.40;;;;;;;7.17;100.00;98917.41;5054404;28;20045;-56
2022/01/29 11:04:48;;;;;;;16.95;7.80;;;;;;;6.40;100.00;98919.13;5039703;28;20517;-55
2022/01/29 11:07:17;;;;;;;20.30;9.05;;;;;;;6.35;100.00;98906.19;5038705;28;20047;-56
2022/01/29 11:09:45;;;;;;;17.23;8.02;;;;;;;7.02;100.00;98903.75;5039563;28;20041;-57
2022/01/29 11:12:16;;;;;;;16.42;7.80;;;;;;;6.58;100.00;98912.91;5038777;28;20403;-56
2022/01/29 11:14:41;;;;;;;14.88;6.75;;;;;;;5.94;100.00;98904.78;5039269;28;20033;-56
2022/01/29 11:17:07;;;;;;;18.10;7.90;;;;;;;6.80;100.00;98916.13;5039381;28;20395;-57
2022/01/29 11:19:33;;;;;;;16.48;7.32;;;;;;;6.73;100.00;98907.53;5039822;28;20040;-56
2022/01/29 11:22:03;;;;;;;16.63;7.68;;;;;;;6.84;100.00;98909.16;5039733;28;20128;-56
2022/01/29 11:24:30;;;;;;;20.33;7.90;;;;;;;7.08;100.00;98911.47;5038986;28;20048;-55
2022/01/29 11:26:56;;;;;;;19.80;7.72;;;;;;;6.76;100.00;98911.81;5041134;28;20084;-57
2022/01/29 11:29:22;;;;;;;17.73;7.43;;;;;;;6.44;100.00;98905.25;5040370;28;20023;-57
2022/01/29 11:31:47;;;;;;;14.55;6.45;;;;;;;6.42;100.00;98890.59;5042465;28;20048;-57
2022/01/29 11:34:12;;;;;;;15.65;7.03;;;;;;;6.30;100.00;98892.41;5043573;28;20049;-55